Time;durP1;ratioP1;P1;durP2;ratioP2;P2;SDS_P1;SDS_P2;PMS_P1;PMS_P2;Temp;Humidity;BMP_temperature;BMP_pressure;BME280_temperature;BME280_humidity;BME280_pressure;Samples;Min_cycle;Max_cycle;Signal;HPM_P1;HPM_P2
2022/05/27 00:00:07;;;;;;;;;;;16.70;99.90;;;;;;5072733;28;20390;-74
2022/05/27 00:02:32;;;;;;;;;;;16.70;99.90;;;;;;5073934;28;20003;-75
2022/05/27 00:04:58;;;;;;;;;;;16.70;99.90;;;;;;5073580;28;19912;-76
2022/05/27 00:07:24;;;;;;;;;;;16.70;99.90;;;;;;5073625;28;19912;-76
2022/05/27 00:09:49;;;;;;;;;;;16.70;99.90;;;;;;5073599;28;19912;-76
2022/05/27 00:12:15;;;;;;;;;;;16.70;99.90;;;;;;5073498;28;19912;-76
2022/05/27 00:14:40;;;;;;;;;;;16.70;99.90;;;;;;5073729;28;19909;-76
2022/05/27 00:17:06;;;;;;;;;;;16.60;99.90;;;;;;5073532;28;19916;-75
2022/05/27 00:19:32;;;;;;;;;;;16.50;99.90;;;;;;5073516;28;20403;-77
2022/05/27 00:21:57;;;;;;;;;;;16.60;99.90;;;;;;5073504;28;19908;-76
2022/05/27 00:24:23;;;;;;;;;;;16.60;99.90;;;;;;5073897;28;20328;-77
2022/05/27 00:26:48;;;;;;;;;;;16.60;99.90;;;;;;5073856;28;19999;-76
2022/05/27 00:29:14;;;;;;;;;;;16.50;99.90;;;;;;5073347;28;19916;-76
2022/05/27 00:31:39;;;;;;;;;;;16.60;99.90;;;;;;5073527;28;19944;-75
2022/05/27 00:34:09;;;;;;;;;;;16.60;99.90;;;;;;5073407;28;20419;-77
2022/05/27 00:36:35;;;;;;;;;;;16.60;99.90;;;;;;5073122;28;20326;-77
2022/05/27 00:39:02;;;;;;;;;;;16.60;99.90;;;;;;5073307;28;19915;-75
2022/05/27 00:41:28;;;;;;;;;;;16.50;99.90;;;;;;5073278;28;19909;-76
2022/05/27 00:43:53;;;;;;;;;;;16.30;99.90;;;;;;5073390;28;19920;-75
2022/05/27 00:46:30;;;;;;;;;;;16.30;99.90;;;;;;5073214;28;19909;-78
2022/05/27 00:49:02;;;;;;;;;;;16.20;99.90;;;;;;5073518;28;19975;-75
2022/05/27 00:51:29;;;;;;;;;;;16.10;99.90;;;;;;5073348;28;19916;-76
2022/05/27 00:53:59;;;;;;;;;;;16.00;99.90;;;;;;5073135;28;20379;-74
2022/05/27 00:56:28;;;;;;;;;;;15.90;99.90;;;;;;5073150;28;19995;-76
2022/05/27 00:58:57;;;;;;;;;;;15.80;99.90;;;;;;5073271;28;19920;-76
2022/05/27 01:01:25;;;;;;;;;;;15.80;99.90;;;;;;5073405;28;20265;-77
2022/05/27 01:03:51;;;;;;;;;;;15.80;99.90;;;;;;5073306;28;20046;-75
2022/05/27 01:06:16;;;;;;;;;;;15.80;99.90;;;;;;5072805;28;19977;-75
2022/05/27 01:08:44;;;;;;;;;;;15.60;99.90;;;;;;5072961;28;20401;-74
2022/05/27 01:11:27;;;;;;;;;;;15.50;99.90;;;;;;5073804;28;20283;-74
2022/05/27 01:14:08;;;;;;;;;;;15.50;99.90;;;;;;5076774;28;20429;-75
2022/05/27 01:16:49;;;;;;;;;;;15.30;99.90;;;;;;5058625;28;19912;-76
2022/05/27 01:22:23;;;;;;;;;;;15.10;99.90;;;;;;5076261;28;19915;-75
2022/05/27 01:24:49;;;;;;;;;;;15.10;99.90;;;;;;5058514;28;19958;-76
2022/05/27 01:27:23;;;;;;;;;;;15.20;99.90;;;;;;5076425;28;19912;-76
2022/05/27 01:30:00;;;;;;;;;;;15.20;99.90;;;;;;5076319;28;20265;-77
2022/05/27 01:32:35;;;;;;;;;;;15.20;99.90;;;;;;5076407;28;19915;-78
2022/05/27 01:35:24;;;;;;;;;;;15.20;99.90;;;;;;5076243;28;20360;-76
2022/05/27 01:38:13;;;;;;;;;;;15.20;99.90;;;;;;5067608;28;19927;-75
2022/05/27 01:40:39;;;;;;;;;;;15.20;99.90;;;;;;5067987;28;20380;-75
2022/05/27 01:43:10;;;;;;;;;;;15.10;99.90;;;;;;5058141;28;19916;-76
2022/05/27 01:45:39;;;;;;;;;;;15.10;99.90;;;;;;5076125;28;19962;-76
2022/05/27 01:48:11;;;;;;;;;;;15.10;99.90;;;;;;5058083;28;20003;-77
2022/05/27 01:50:42;;;;;;;;;;;15.20;99.90;;;;;;5076080;28;19939;-75
2022/05/27 01:53:10;;;;;;;;;;;15.30;99.90;;;;;;5091243;28;19931;-76
2022/05/27 01:55:40;;;;;;;;;;;15.30;99.90;;;;;;5076060;28;19962;-76
2022/05/27 01:58:28;;;;;;;;;;;15.40;99.90;;;;;;5075791;28;19909;-77
2022/05/27 02:00:53;;;;;;;;;;;15.30;99.90;;;;;;5076273;28;20111;-75
2022/05/27 02:03:19;;;;;;;;;;;15.30;99.90;;;;;;5075781;28;19955;-76
2022/05/27 02:05:48;;;;;;;;;;;15.30;99.90;;;;;;5057677;28;19954;-75
2022/05/27 02:08:27;;;;;;;;;;;15.40;99.90;;;;;;5075616;28;19913;-74
2022/05/27 02:11:05;;;;;;;;;;;15.40;99.90;;;;;;5057207;28;19912;-76
2022/05/27 02:13:34;;;;;;;;;;;15.30;99.90;;;;;;5075712;28;19936;-75
2022/05/27 02:16:01;;;;;;;;;;;15.20;99.90;;;;;;5075626;28;20427;-77
2022/05/27 02:18:35;;;;;;;;;;;15.30;99.90;;;;;;5075539;28;19908;-76
2022/05/27 02:21:03;;;;;;;;;;;15.20;99.90;;;;;;5075422;28;20321;-76
2022/05/27 02:23:35;;;;;;;;;;;15.20;99.90;;;;;;5074783;28;20266;-75
2022/05/27 02:26:03;;;;;;;;;;;15.20;99.90;;;;;;5075459;28;19909;-75
2022/05/27 02:28:38;;;;;;;;;;;15.20;99.90;;;;;;5057182;28;19923;-75
2022/05/27 02:31:21;;;;;;;;;;;15.20;99.90;;;;;;5075152;28;20372;-75
2022/05/27 02:36:35;;;;;;;;;;;14.90;99.90;;;;;;5074754;28;19927;-75
2022/05/27 02:39:01;;;;;;;;;;;14.80;99.90;;;;;;5075055;28;19916;-75
2022/05/27 02:41:31;;;;;;;;;;;14.80;99.90;;;;;;5074989;28;19909;-77
2022/05/27 02:44:06;;;;;;;;;;;14.80;99.90;;;;;;5075045;28;20000;-76
2022/05/27 02:46:49;;;;;;;;;;;14.70;99.90;;;;;;5075135;28;19908;-76
2022/05/27 02:49:17;;;;;;;;;;;14.70;99.90;;;;;;5075049;28;19916;-76
2022/05/27 02:51:55;;;;;;;;;;;14.60;99.90;;;;;;5074778;28;19908;-75
2022/05/27 02:54:21;;;;;;;;;;;14.50;99.90;;;;;;5074681;28;19951;-75
2022/05/27 02:56:49;;;;;;;;;;;14.40;99.90;;;;;;5074860;28;20064;-78
2022/05/27 02:59:17;;;;;;;;;;;14.40;99.90;;;;;;5074607;28;19912;-77
2022/05/27 03:01:44;;;;;;;;;;;14.50;99.90;;;;;;5074632;28;19931;-77
2022/05/27 03:04:09;;;;;;;;;;;14.50;99.90;;;;;;5074628;28;19948;-75
2022/05/27 03:06:47;;;;;;;;;;;14.20;99.90;;;;;;5074488;28;19970;-76
2022/05/27 03:09:18;;;;;;;;;;;14.20;99.90;;;;;;5074752;28;19912;-76
2022/05/27 03:11:49;;;;;;;;;;;14.40;99.90;;;;;;5056252;28;19959;-77
2022/05/27 03:14:24;;;;;;;;;;;14.60;99.90;;;;;;5074353;28;19912;-76
2022/05/27 03:16:56;;;;;;;;;;;14.60;99.90;;;;;;5074538;28;19908;-76
2022/05/27 03:19:22;;;;;;;;;;;14.70;99.90;;;;;;5074402;28;19908;-77
2022/05/27 03:21:50;;;;;;;;;;;14.70;99.90;;;;;;5074220;28;19908;-77
2022/05/27 03:24:33;;;;;;;;;;;14.90;99.90;;;;;;5074213;28;20379;-76
2022/05/27 03:27:23;;;;;;;;;;;14.80;99.90;;;;;;5089434;28;19908;-75
2022/05/27 03:29:49;;;;;;;;;;;14.80;99.90;;;;;;5074165;28;19934;-75
2022/05/27 03:32:18;;;;;;;;;;;14.80;99.90;;;;;;5074018;28;19962;-75
2022/05/27 03:34:53;;;;;;;;;;;14.90;99.90;;;;;;5073237;28;20066;-75
2022/05/27 03:37:35;;;;;;;;;;;15.00;99.90;;;;;;5073846;28;20331;-76
2022/05/27 03:40:00;;;;;;;;;;;15.00;99.90;;;;;;5056345;28;19908;-74
2022/05/27 03:42:27;;;;;;;;;;;15.20;99.90;;;;;;5073998;28;20319;-76
2022/05/27 03:45:02;;;;;;;;;;;15.20;99.90;;;;;;5073874;28;19912;-76
2022/05/27 03:47:28;;;;;;;;;;;15.30;99.90;;;;;;5074049;28;19958;-76
2022/05/27 03:49:53;;;;;;;;;;;15.30;99.90;;;;;;5073717;28;20319;-76
2022/05/27 03:52:21;;;;;;;;;;;15.40;99.90;;;;;;5073892;28;19908;-76
2022/05/27 03:54:47;;;;;;;;;;;15.40;99.90;;;;;;5073783;28;19908;-74
2022/05/27 03:57:12;;;;;;;;;;;15.40;99.90;;;;;;5089259;28;19999;-75
2022/05/27 03:59:38;;;;;;;;;;;15.40;99.90;;;;;;5073919;28;19909;-75
2022/05/27 04:02:04;;;;;;;;;;;15.40;99.90;;;;;;5073709;28;19912;-75
2022/05/27 04:04:29;;;;;;;;;;;15.50;99.90;;;;;;5073734;28;20295;-75
2022/05/27 04:06:55;;;;;;;;;;;15.50;99.90;;;;;;5073660;28;19944;-75
2022/05/27 04:09:22;;;;;;;;;;;15.50;99.90;;;;;;5073744;28;20294;-76
2022/05/27 04:11:48;;;;;;;;;;;15.50;99.90;;;;;;5073620;28;19915;-75
2022/05/27 04:14:13;;;;;;;;;;;15.50;99.90;;;;;;5055628;28;19912;-77
2022/05/27 04:16:39;;;;;;;;;;;15.50;99.90;;;;;;5073824;28;19909;-76
2022/05/27 04:19:05;;;;;;;;;;;15.50;99.90;;;;;;5073912;28;19908;-75
2022/05/27 04:21:31;;;;;;;;;;;15.50;99.90;;;;;;5073823;28;19991;-75
2022/05/27 04:23:57;;;;;;;;;;;15.30;99.90;;;;;;5073661;28;20390;-77
2022/05/27 04:26:23;;;;;;;;;;;15.20;99.90;;;;;;5073617;28;19996;-75
2022/05/27 04:28:48;;;;;;;;;;;15.40;99.90;;;;;;5073373;28;19917;-77
2022/05/27 04:31:14;;;;;;;;;;;15.60;99.90;;;;;;5073408;28;19913;-74
2022/05/27 04:33:40;;;;;;;;;;;15.60;99.90;;;;;;5073405;28;19916;-76
2022/05/27 04:36:07;;;;;;;;;;;15.60;99.90;;;;;;5073270;28;19932;-76
2022/05/27 04:38:32;;;;;;;;;;;15.60;99.90;;;;;;5073377;28;19909;-75
2022/05/27 04:40:58;;;;;;;;;;;15.70;99.90;;;;;;5055283;28;19916;-76
2022/05/27 04:43:23;;;;;;;;;;;15.70;99.90;;;;;;5073575;28;19913;-75
2022/05/27 04:45:49;;;;;;;;;;;15.70;99.90;;;;;;5073260;28;19908;-75
2022/05/27 04:48:17;;;;;;;;;;;15.70;99.90;;;;;;5059056;28;19912;-78
2022/05/27 04:50:42;;;;;;;;;;;15.70;99.90;;;;;;5077099;28;19912;-76
2022/05/27 04:53:09;;;;;;;;;;;15.80;99.90;;;;;;5059120;28;19908;-76
2022/05/27 04:55:35;;;;;;;;;;;15.90;99.90;;;;;;5077283;28;20402;-75
2022/05/27 04:58:01;;;;;;;;;;;15.80;99.90;;;;;;5076938;28;19908;-76
2022/05/27 05:00:28;;;;;;;;;;;15.80;99.90;;;;;;5076910;28;19931;-75
2022/05/27 05:02:54;;;;;;;;;;;15.90;99.90;;;;;;5077271;28;19970;-77
2022/05/27 05:05:22;;;;;;;;;;;15.90;99.90;;;;;;5077002;28;19908;-75
2022/05/27 05:07:51;;;;;;;;;;;16.00;99.90;;;;;;5076756;28;19908;-78
2022/05/27 05:10:20;;;;;;;;;;;16.10;99.90;;;;;;5092243;28;20384;-76
2022/05/27 05:12:46;;;;;;;;;;;16.20;99.90;;;;;;5076626;28;20360;-78
2022/05/27 05:15:12;;;;;;;;;;;16.20;99.90;;;;;;5076612;28;19909;-77
2022/05/27 05:17:38;;;;;;;;;;;16.30;99.90;;;;;;5076596;28;19912;-76
2022/05/27 05:20:04;;;;;;;;;;;16.30;99.90;;;;;;5077053;28;20419;-74
2022/05/27 05:22:30;;;;;;;;;;;16.20;99.90;;;;;;5058618;28;20280;-76
2022/05/27 05:24:56;;;;;;;;;;;16.30;99.90;;;;;;5076460;28;19908;-75
2022/05/27 05:27:22;;;;;;;;;;;16.40;99.90;;;;;;5076458;28;19908;-76
2022/05/27 05:29:47;;;;;;;;;;;16.40;99.90;;;;;;5076337;28;20348;-76
2022/05/27 05:32:13;;;;;;;;;;;16.50;99.90;;;;;;5076755;28;19973;-76
2022/05/27 05:34:38;;;;;;;;;;;16.50;99.90;;;;;;5058328;28;19908;-76
2022/05/27 05:37:04;;;;;;;;;;;16.50;99.90;;;;;;5075998;28;19978;-75
2022/05/27 05:39:30;;;;;;;;;;;16.60;99.90;;;;;;5058278;28;20280;-77
2022/05/27 05:41:59;;;;;;;;;;;16.70;99.90;;;;;;5076229;28;19955;-76
2022/05/27 05:44:26;;;;;;;;;;;16.70;99.90;;;;;;5058169;28;19916;-76
2022/05/27 05:46:52;;;;;;;;;;;16.70;99.90;;;;;;5076196;28;19908;-74
2022/05/27 05:49:17;;;;;;;;;;;16.70;99.90;;;;;;5075948;28;20015;-76
2022/05/27 05:51:43;;;;;;;;;;;16.70;99.90;;;;;;5075998;28;19909;-75
2022/05/27 05:54:08;;;;;;;;;;;16.80;99.90;;;;;;5076054;28;19958;-75
2022/05/27 05:56:34;;;;;;;;;;;16.90;99.90;;;;;;5075908;28;20287;-77
2022/05/27 05:59:00;;;;;;;;;;;16.90;99.90;;;;;;5074882;28;19916;-75
2022/05/27 06:01:26;;;;;;;;;;;16.90;99.90;;;;;;5075811;28;19953;-77
2022/05/27 06:03:51;;;;;;;;;;;17.00;99.90;;;;;;5075809;28;20405;-75
2022/05/27 06:06:17;;;;;;;;;;;17.10;99.90;;;;;;5057694;28;19908;-77
2022/05/27 06:08:43;;;;;;;;;;;17.20;99.90;;;;;;5075642;28;19940;-76
2022/05/27 06:11:09;;;;;;;;;;;17.10;99.90;;;;;;5075581;28;20042;-75
2022/05/27 06:13:36;;;;;;;;;;;17.10;99.90;;;;;;5075627;28;19909;-75
2022/05/27 06:16:02;;;;;;;;;;;17.40;99.90;;;;;;5075536;28;19915;-75
2022/05/27 06:18:28;;;;;;;;;;;17.50;99.90;;;;;;5075430;28;19915;-76
2022/05/27 06:20:54;;;;;;;;;;;17.50;99.90;;;;;;5075299;28;20358;-76
2022/05/27 06:23:21;;;;;;;;;;;17.70;99.90;;;;;;5075738;28;19909;-75
2022/05/27 06:25:52;;;;;;;;;;;17.70;99.90;;;;;;5075628;28;19999;-76
2022/05/27 06:36:30;;;;;;;;;;;17.70;99.90;;;;;;5074950;28;19928;-77
2022/05/27 06:38:56;;;;;;;;;;;17.90;99.90;;;;;;5057088;28;19908;-76
2022/05/27 06:41:21;;;;;;;;;;;18.10;99.90;;;;;;5075057;28;19915;-76
2022/05/27 06:43:47;;;;;;;;;;;18.00;99.90;;;;;;5057067;28;20311;-75
2022/05/27 06:46:13;;;;;;;;;;;18.00;99.90;;;;;;5075470;28;19958;-77
2022/05/27 06:48:39;;;;;;;;;;;18.30;99.90;;;;;;5074773;28;19916;-76
2022/05/27 06:51:05;;;;;;;;;;;18.60;99.90;;;;;;5074824;28;19913;-75
2022/05/27 06:53:31;;;;;;;;;;;18.50;99.90;;;;;;5074801;28;19908;-74
2022/05/27 06:55:57;;;;;;;;;;;18.30;99.90;;;;;;5074779;28;19909;-77
2022/05/27 06:58:22;;;;;;;;;;;18.20;99.90;;;;;;5074690;28;20371;-75
2022/05/27 07:00:48;;;;;;;;;;;18.30;99.90;;;;;;5074594;28;19908;-75
2022/05/27 07:03:13;;;;;;;;;;;18.20;99.90;;;;;;5056929;28;20007;-76
2022/05/27 07:05:39;;;;;;;;;;;18.20;99.90;;;;;;5074345;28;19908;-78
2022/05/27 07:08:05;;;;;;;;;;;18.40;99.90;;;;;;5074523;28;20290;-76
2022/05/27 07:10:31;;;;;;;;;;;18.50;99.90;;;;;;5074079;28;20382;-76
2022/05/27 07:12:59;;;;;;;;;;;18.50;99.90;;;;;;5074344;28;19912;-77
2022/05/27 07:15:27;;;;;;;;;;;18.50;99.90;;;;;;5074299;28;19955;-77
2022/05/27 07:17:53;;;;;;;;;;;18.30;99.90;;;;;;5074286;28;19916;-75
2022/05/27 07:20:20;;;;;;;;;;;18.20;99.90;;;;;;5074228;28;19908;-76
2022/05/27 07:22:46;;;;;;;;;;;18.30;99.90;;;;;;5057111;28;19913;-75
2022/05/27 07:25:13;;;;;;;;;;;18.70;99.90;;;;;;5074129;28;19955;-75
2022/05/27 07:27:39;;;;;;;;;;;19.00;99.90;;;;;;5074309;28;19908;-75
2022/05/27 07:30:04;;;;;;;;;;;19.00;99.90;;;;;;5089627;28;19965;-76
2022/05/27 07:32:34;;;;;;;;;;;19.20;99.90;;;;;;5074275;28;19995;-76
2022/05/27 07:34:59;;;;;;;;;;;19.50;99.90;;;;;;5074189;28;20280;-77
2022/05/27 07:37:25;;;;;;;;;;;19.50;99.90;;;;;;5073604;28;19928;-75
2022/05/27 07:39:50;;;;;;;;;;;19.60;99.90;;;;;;5074126;28;19909;-76
2022/05/27 07:42:16;;;;;;;;;;;19.60;99.90;;;;;;5073937;28;20360;-75
2022/05/27 07:44:41;;;;;;;;;;;19.70;99.90;;;;;;5073878;28;19909;-76
2022/05/27 07:47:07;;;;;;;;;;;19.60;99.90;;;;;;5073942;28;19985;-75
2022/05/27 07:49:33;;;;;;;;;;;19.80;99.90;;;;;;5074029;28;19913;-77
2022/05/27 07:51:59;;;;;;;;;;;20.10;99.90;;;;;;5074043;28;20374;-76
2022/05/27 07:54:24;;;;;;;;;;;20.30;99.90;;;;;;5073803;28;19912;-77
2022/05/27 07:56:50;;;;;;;;;;;20.50;99.90;;;;;;5074007;28;19909;-77
2022/05/27 07:59:15;;;;;;;;;;;20.50;99.90;;;;;;5074357;28;19944;-76
2022/05/27 08:01:41;;;;;;;;;;;20.90;99.90;;;;;;5073716;28;19912;-78
2022/05/27 08:04:07;;;;;;;;;;;20.90;99.90;;;;;;5073725;28;19909;-77
2022/05/27 08:06:33;;;;;;;;;;;20.90;99.90;;;;;;5073682;28;19908;-75
2022/05/27 08:08:58;;;;;;;;;;;21.20;99.90;;;;;;5073578;28;19916;-77
2022/05/27 08:11:24;;;;;;;;;;;21.40;99.90;;;;;;5073573;28;19920;-78
2022/05/27 08:13:49;;;;;;;;;;;21.50;99.80;;;;;;5073583;28;19909;-74
2022/05/27 08:16:16;;;;;;;;;;;21.40;99.20;;;;;;5073619;28;19912;-74
2022/05/27 08:18:41;;;;;;;;;;;21.70;99.30;;;;;;5055598;28;20356;-75
2022/05/27 08:21:07;;;;;;;;;;;21.90;97.50;;;;;;5073893;28;19943;-75
2022/05/27 08:23:33;;;;;;;;;;;21.70;97.40;;;;;;5077599;28;19989;-77
2022/05/27 08:25:58;;;;;;;;;;;21.00;99.00;;;;;;5077644;28;19963;-75
2022/05/27 08:28:24;;;;;;;;;;;21.70;99.40;;;;;;5077837;28;19919;-76
2022/05/27 08:30:50;;;;;;;;;;;22.30;97.30;;;;;;5077460;28;19912;-76
2022/05/27 08:33:16;;;;;;;;;;;22.20;96.40;;;;;;5077536;28;19916;-77
2022/05/27 08:38:32;;;;;;;;;;;21.80;96.80;;;;;;5077470;28;19920;-76
2022/05/27 08:41:16;;;;;;;;;;;21.90;96.90;;;;;;5077831;28;19924;-75
2022/05/27 08:43:48;;;;;;;;;;;22.30;96.60;;;;;;5059331;28;19909;-77
2022/05/27 08:46:18;;;;;;;;;;;23.10;95.80;;;;;;5077273;28;19909;-74
2022/05/27 08:48:45;;;;;;;;;;;24.10;93.40;;;;;;5077134;28;19996;-76
2022/05/27 08:51:21;;;;;;;;;;;24.80;91.60;;;;;;5076978;28;19916;-76
2022/05/27 08:53:50;;;;;;;;;;;24.00;91.40;;;;;;5077187;28;19958;-76
2022/05/27 08:59:26;;;;;;;;;;;24.50;91.10;;;;;;5076921;28;19919;-76
2022/05/27 09:01:54;;;;;;;;;;;25.80;91.10;;;;;;5076906;28;19962;-75
2022/05/27 09:04:21;;;;;;;;;;;27.00;85.40;;;;;;5058867;28;20383;-76
2022/05/27 09:06:49;;;;;;;;;;;28.20;82.00;;;;;;5076823;28;19962;-76
2022/05/27 09:09:20;;;;;;;;;;;27.80;76.30;;;;;;5058496;28;19995;-76
2022/05/27 09:11:54;;;;;;;;;;;26.50;80.40;;;;;;5077416;28;19958;-75
2022/05/27 09:14:22;;;;;;;;;;;26.20;80.90;;;;;;5076724;28;19958;-77
2022/05/27 09:16:54;;;;;;;;;;;26.00;81.00;;;;;;5076781;28;19909;-74
2022/05/27 09:19:25;;;;;;;;;;;25.80;82.30;;;;;;5076584;28;19998;-77
2022/05/27 09:21:59;;;;;;;;;;;25.00;83.70;;;;;;5076561;28;19909;-77
2022/05/27 09:24:45;;;;;;;;;;;24.90;85.80;;;;;;5076633;28;19908;-75
2022/05/27 09:27:11;;;;;;;;;;;24.40;87.60;;;;;;5075969;28;19916;-75
2022/05/27 09:29:45;;;;;;;;;;;24.20;89.00;;;;;;5076365;28;19912;-76
2022/05/27 09:32:16;;;;;;;;;;;24.40;90.50;;;;;;5076341;28;19909;-75
2022/05/27 09:34:43;;;;;;;;;;;25.50;85.90;;;;;;5076500;28;19908;-75
2022/05/27 09:37:11;;;;;;;;;;;25.40;84.90;;;;;;5076298;28;20438;-78
2022/05/27 09:39:36;;;;;;;;;;;25.60;84.30;;;;;;5076258;28;19958;-76
2022/05/27 09:42:14;;;;;;;;;;;25.80;83.10;;;;;;5075740;28;20352;-75
2022/05/27 09:44:48;;;;;;;;;;;24.80;83.30;;;;;;5058158;28;20338;-76
2022/05/27 09:47:15;;;;;;;;;;;24.10;88.40;;;;;;5076426;28;20403;-76
2022/05/27 09:49:41;;;;;;;;;;;24.00;90.10;;;;;;5091533;28;19919;-76
2022/05/27 09:52:07;;;;;;;;;;;24.30;90.10;;;;;;5076019;28;19908;-77
2022/05/27 09:54:41;;;;;;;;;;;24.20;89.60;;;;;;5075997;28;20289;-75
2022/05/27 09:57:09;;;;;;;;;;;24.30;89.70;;;;;;5076470;28;19944;-75
2022/05/27 09:59:39;;;;;;;;;;;25.10;87.90;;;;;;5075907;28;19912;-76
2022/05/27 10:02:14;;;;;;;;;;;26.70;82.50;;;;;;5076089;28;19912;-77
2022/05/27 10:04:50;;;;;;;;;;;27.80;79.50;;;;;;5075768;28;20015;-77
2022/05/27 10:07:22;;;;;;;;;;;30.00;73.40;;;;;;5057656;28;19913;-75
2022/05/27 10:09:48;;;;;;;;;;;30.70;69.60;;;;;;5075588;28;19912;-77
2022/05/27 10:12:26;;;;;;;;;;;29.60;68.20;;;;;;5057518;28;20481;-78
2022/05/27 10:14:52;;;;;;;;;;;28.10;71.60;;;;;;5075783;28;19908;-77
2022/05/27 10:17:27;;;;;;;;;;;27.10;74.10;;;;;;5075486;28;19973;-78
2022/05/27 10:20:11;;;;;;;;;;;26.30;76.90;;;;;;5075636;28;19908;-77
2022/05/27 10:22:37;;;;;;;;;;;26.00;77.50;;;;;;5075608;28;19908;-76
2022/05/27 10:25:08;;;;;;;;;;;25.40;79.30;;;;;;5075367;28;19916;-76
2022/05/27 10:27:36;;;;;;;;;;;24.90;83.00;;;;;;5075501;28;19918;-77
2022/05/27 10:30:06;;;;;;;;;;;25.10;83.90;;;;;;5075256;28;19912;-75
2022/05/27 10:32:42;;;;;;;;;;;25.50;82.20;;;;;;5075602;28;19908;-78
2022/05/27 10:35:07;;;;;;;;;;;25.70;81.50;;;;;;5075497;28;20342;-75
2022/05/27 10:37:44;;;;;;;;;;;25.20;82.00;;;;;;5074966;28;19970;-76
2022/05/27 10:40:25;;;;;;;;;;;25.00;84.50;;;;;;5056879;28;20383;-75
2022/05/27 10:42:56;;;;;;;;;;;24.90;84.90;;;;;;5075183;28;19908;-77
2022/05/27 10:45:31;;;;;;;;;;;25.00;83.80;;;;;;5075174;28;19909;-77
2022/05/27 10:47:56;;;;;;;;;;;25.70;83.40;;;;;;5074861;28;19909;-75
2022/05/27 10:50:25;;;;;;;;;;;26.30;80.30;;;;;;5074789;28;20011;-76
2022/05/27 10:52:57;;;;;;;;;;;26.10;81.10;;;;;;5074949;28;19958;-76
2022/05/27 10:55:28;;;;;;;;;;;26.60;79.90;;;;;;5075170;28;20359;-77
2022/05/27 11:03:34;;;;;;;;;;;26.60;77.90;;;;;;5074390;28;19920;-76
2022/05/27 11:06:19;;;;;;;;;;;25.30;82.60;;;;;;5075075;28;19908;-77
2022/05/27 11:08:58;;;;;;;;;;;24.70;85.10;;;;;;5074448;28;19912;-75
2022/05/27 11:11:30;;;;;;;;;;;24.70;87.20;;;;;;5074535;28;19909;-75
2022/05/27 11:17:04;;;;;;;;;;;25.80;86.20;;;;;;5055732;28;20061;-78
2022/05/27 11:19:30;;;;;;;;;;;27.20;82.30;;;;;;5063497;28;19916;-78
2022/05/27 11:21:59;;;;;;;;;;;27.70;78.30;;;;;;5037143;28;19909;-76
2022/05/27 11:24:43;;;;;;;;;;;28.20;75.20;;;;;;5065223;28;19919;-77
2022/05/27 11:27:27;;;;;;;;;;;28.00;75.20;;;;;;5063187;28;19909;-77
2022/05/27 11:30:12;;;;;;;;;;;26.90;75.80;;;;;;5073536;28;19973;-76
2022/05/27 11:32:41;;;;;;;;;;;26.10;78.50;;;;;;5058930;28;20444;-76
2022/05/27 11:35:16;;;;;;;;;;;25.10;81.00;;;;;;5059426;28;19909;-76
2022/05/27 11:38:17;;;;;;;;;;;24.10;83.70;;;;;;5062346;28;19921;-76
2022/05/27 11:40:49;;;;;;;;;;;23.30;90.20;;;;;;5003663;28;19910;-74
2022/05/27 11:43:23;;;;;;;;;;;22.80;93.40;;;;;;5051739;28;19944;-76
2022/05/27 11:45:56;;;;;;;;;;;22.90;94.40;;;;;;5063999;28;20384;-76
2022/05/27 11:48:30;;;;;;;;;;;23.10;94.10;;;;;;5071185;28;19916;-76
2022/05/27 11:51:10;;;;;;;;;;;23.30;93.60;;;;;;5074021;28;19966;-75
2022/05/27 11:53:36;;;;;;;;;;;23.60;92.90;;;;;;5073779;28;19962;-75
2022/05/27 11:56:14;;;;;;;;;;;24.10;92.00;;;;;;5073045;28;19909;-77
2022/05/27 11:58:54;;;;;;;;;;;24.20;91.50;;;;;;5073682;28;20348;-75
2022/05/27 12:01:37;;;;;;;;;;;24.50;90.50;;;;;;5055727;28;19909;-75
2022/05/27 12:04:15;;;;;;;;;;;25.50;89.10;;;;;;5073845;28;19913;-76
2022/05/27 12:06:44;;;;;;;;;;;25.40;85.70;;;;;;5073587;28;20418;-77
2022/05/27 12:09:15;;;;;;;;;;;24.90;87.10;;;;;;5073552;28;19913;-76
2022/05/27 12:11:50;;;;;;;;;;;24.50;88.30;;;;;;5073723;28;19916;-76
2022/05/27 12:14:18;;;;;;;;;;;24.00;90.20;;;;;;5055515;28;19916;-77
2022/05/27 12:16:48;;;;;;;;;;;23.80;90.90;;;;;;5073575;28;20031;-75
2022/05/27 12:19:16;;;;;;;;;;;23.60;91.70;;;;;;5073585;28;19908;-77
2022/05/27 12:22:14;;;;;;;;;;;23.70;91.60;;;;;;5073620;28;19932;-76
2022/05/27 12:24:45;;;;;;;;;;;23.80;91.80;;;;;;5050485;28;19909;-76
2022/05/27 12:27:14;;;;;;;;;;;25.10;90.90;;;;;;5073472;28;19912;-77
2022/05/27 12:29:40;;;;;;;;;;;26.30;85.80;;;;;;5073545;28;19916;-76
2022/05/27 12:32:10;;;;;;;;;;;27.10;83.10;;;;;;5073428;28;19908;-76
2022/05/27 12:34:38;;;;;;;;;;;27.60;80.50;;;;;;5073352;28;19999;-76
2022/05/27 12:37:12;;;;;;;;;;;27.50;76.70;;;;;;5073198;28;20372;-77
2022/05/27 12:39:39;;;;;;;;;;;27.10;77.40;;;;;;5073357;28;19908;-75
2022/05/27 12:42:12;;;;;;;;;;;26.70;78.60;;;;;;5073436;28;19913;-75
2022/05/27 12:44:38;;;;;;;;;;;26.30;79.80;;;;;;5073288;28;19970;-77
2022/05/27 12:47:07;;;;;;;;;;;25.80;81.00;;;;;;5073761;28;19908;-78
2022/05/27 12:49:39;;;;;;;;;;;25.40;82.30;;;;;;5073506;28;19912;-76
2022/05/27 12:52:06;;;;;;;;;;;25.20;83.00;;;;;;5073378;28;19916;-75
2022/05/27 12:54:45;;;;;;;;;;;24.90;83.90;;;;;;5073206;28;20440;-76
2022/05/27 13:03:06;;;;;;;;;;;24.00;88.00;;;;;;5072912;28;19975;-76
2022/05/27 13:05:51;;;;;;;;;;;23.50;90.50;;;;;;5073093;28;20450;-76
2022/05/27 13:08:20;;;;;;;;;;;23.40;91.00;;;;;;5075165;28;20345;-75
2022/05/27 13:10:47;;;;;;;;;;;23.30;91.20;;;;;;5076615;28;19912;-77
2022/05/27 13:13:15;;;;;;;;;;;23.10;92.00;;;;;;5076758;28;19954;-76
2022/05/27 13:15:43;;;;;;;;;;;23.20;91.90;;;;;;5076735;28;19966;-76
2022/05/27 13:18:09;;;;;;;;;;;23.40;92.10;;;;;;5076642;28;19916;-75
2022/05/27 13:20:53;;;;;;;;;;;23.30;91.80;;;;;;5076631;28;20316;-77
2022/05/27 13:23:21;;;;;;;;;;;23.10;91.60;;;;;;5076721;28;19999;-78
2022/05/27 13:25:59;;;;;;;;;;;23.30;91.40;;;;;;5076519;28;19909;-78
2022/05/27 13:28:32;;;;;;;;;;;23.70;91.30;;;;;;5076609;28;19920;-77
2022/05/27 13:31:11;;;;;;;;;;;24.00;90.80;;;;;;5076275;28;20383;-76
2022/05/27 13:33:36;;;;;;;;;;;24.30;89.80;;;;;;5076361;28;19988;-75
2022/05/27 13:36:13;;;;;;;;;;;24.90;87.30;;;;;;5076284;28;19958;-76
2022/05/27 13:38:40;;;;;;;;;;;25.70;82.80;;;;;;5076281;28;19908;-76
2022/05/27 13:41:09;;;;;;;;;;;26.70;81.50;;;;;;5076175;28;19932;-76
2022/05/27 13:43:36;;;;;;;;;;;27.00;79.50;;;;;;5076474;28;19922;-77
2022/05/27 13:46:07;;;;;;;;;;;26.30;80.10;;;;;;5076383;28;19915;-76
2022/05/27 13:48:42;;;;;;;;;;;25.50;81.80;;;;;;5076285;28;19995;-75
2022/05/27 13:51:12;;;;;;;;;;;25.00;83.20;;;;;;5075985;28;19920;-77
2022/05/27 13:53:38;;;;;;;;;;;25.00;84.90;;;;;;5058062;28;19916;-76
2022/05/27 13:56:18;;;;;;;;;;;25.20;85.00;;;;;;5076139;28;19995;-76
2022/05/27 13:58:55;;;;;;;;;;;25.50;84.00;;;;;;5075890;28;20463;-77
2022/05/27 14:01:28;;;;;;;;;;;25.70;83.10;;;;;;5058010;28;19912;-75
2022/05/27 14:04:14;;;;;;;;;;;26.20;81.80;;;;;;5075981;28;19908;-76
2022/05/27 14:06:40;;;;;;;;;;;26.60;79.10;;;;;;5068121;28;19908;-75
2022/05/27 14:09:19;;;;;;;;;;;26.70;77.60;;;;;;5075587;28;19915;-77
2022/05/27 14:11:50;;;;;;;;;;;26.80;78.20;;;;;;5075399;28;19920;-75
2022/05/27 14:14:27;;;;;;;;;;;27.20;75.90;;;;;;5075801;28;19909;-75
2022/05/27 14:16:53;;;;;;;;;;;27.10;74.90;;;;;;5057353;28;20433;-75
2022/05/27 14:19:24;;;;;;;;;;;26.30;77.50;;;;;;5074580;28;19908;-75
2022/05/27 14:25:01;;;;;;;;;;;25.60;78.40;;;;;;5075191;28;19916;-74
2022/05/27 14:27:27;;;;;;;;;;;25.20;79.60;;;;;;5057394;28;19912;-75
2022/05/27 14:29:54;;;;;;;;;;;25.00;80.50;;;;;;5075206;28;19978;-75
2022/05/27 14:32:22;;;;;;;;;;;24.70;81.80;;;;;;5075549;28;19962;-75
2022/05/27 14:34:49;;;;;;;;;;;25.00;81.30;;;;;;5075334;28;20288;-76
2022/05/27 14:37:21;;;;;;;;;;;25.20;81.20;;;;;;5074977;28;20031;-76
2022/05/27 14:39:49;;;;;;;;;;;25.20;79.80;;;;;;5075096;28;20287;-75
2022/05/27 14:42:16;;;;;;;;;;;25.10;80.30;;;;;;5075209;28;19951;-76
2022/05/27 14:44:43;;;;;;;;;;;25.00;81.40;;;;;;5075470;28;20413;-75
2022/05/27 14:47:11;;;;;;;;;;;24.90;81.40;;;;;;5074938;28;19995;-76
2022/05/27 14:49:47;;;;;;;;;;;25.10;81.40;;;;;;5075079;28;19912;-75
2022/05/27 14:52:16;;;;;;;;;;;24.90;80.90;;;;;;5075073;28;19908;-76
2022/05/27 14:54:43;;;;;;;;;;;24.40;81.90;;;;;;5075094;28;19908;-76
2022/05/27 14:57:23;;;;;;;;;;;24.10;83.70;;;;;;5074741;28;19909;-75
2022/05/27 15:00:08;;;;;;;;;;;23.80;85.50;;;;;;5074721;28;19916;-76
2022/05/27 15:02:40;;;;;;;;;;;23.80;86.60;;;;;;5074958;28;19995;-75
2022/05/27 15:05:06;;;;;;;;;;;23.80;87.40;;;;;;5074561;28;20406;-77
2022/05/27 15:07:39;;;;;;;;;;;24.00;87.00;;;;;;5074517;28;19908;-76